Time;durP1;ratioP1;P1;durP2;ratioP2;P2;SDS_P1;SDS_P2;PMS_P1;PMS_P2;Temp;Humidity;BMP_temperature;BMP_pressure;BME280_temperature;BME280_humidity;BME280_pressure;Samples;Min_cycle;Max_cycle;Signal;HPM_P1;HPM_P2
2022/03/08 00:00:44;;;;;;;4.88;4.25;;;4.70;47.90;;;;;;5050711;28;20181;-79
2022/03/08 00:03:10;;;;;;;4.93;4.00;;;4.70;49.40;;;;;;5029605;28;20204;-78
2022/03/08 00:05:36;;;;;;;5.23;4.27;;;4.60;48.90;;;;;;5047157;28;20170;-78
2022/03/08 00:08:03;;;;;;;3.83;3.53;;;4.70;48.00;;;;;;5027702;28;20634;-78
2022/03/08 00:10:28;;;;;;;3.53;3.13;;;4.70;49.00;;;;;;5046425;28;20571;-78
2022/03/08 00:12:54;;;;;;;3.90;3.50;;;4.70;48.80;;;;;;5039088;28;20216;-78
2022/03/08 00:15:24;;;;;;;5.72;5.13;;;4.70;47.50;;;;;;5048338;28;20653;-78
2022/03/08 00:17:51;;;;;;;5.13;4.63;;;4.60;47.80;;;;;;5044253;28;20691;-77
2022/03/08 00:20:17;;;;;;;4.75;4.05;;;4.60;47.70;;;;;;5042770;28;20172;-77
2022/03/08 00:22:44;;;;;;;4.68;4.22;;;4.60;47.70;;;;;;5044154;28;20193;-78
2022/03/08 00:25:11;;;;;;;4.20;3.80;;;4.60;47.40;;;;;;5041630;28;20646;-77
2022/03/08 00:27:37;;;;;;;4.63;4.22;;;4.60;48.10;;;;;;5051667;28;20177;-78
2022/03/08 00:30:05;;;;;;;5.85;4.20;;;4.60;47.70;;;;;;5042425;28;20170;-78
2022/03/08 00:32:31;;;;;;;3.75;3.15;;;4.50;48.10;;;;;;5050014;28;20192;-78
2022/03/08 00:34:57;;;;;;;4.80;4.35;;;4.50;47.90;;;;;;5013278;28;20208;-78
2022/03/08 00:37:23;;;;;;;4.17;3.80;;;4.50;48.40;;;;;;5047219;28;20184;-78
2022/03/08 00:39:49;;;;;;;5.10;4.17;;;4.50;47.80;;;;;;5044955;28;21114;-78
2022/03/08 00:42:15;;;;;;;5.57;4.37;;;4.40;49.60;;;;;;5046696;28;20695;-78
2022/03/08 00:44:42;;;;;;;4.40;3.60;;;4.40;48.20;;;;;;5048439;28;20580;-78
2022/03/08 00:47:09;;;;;;;3.42;3.03;;;4.40;48.20;;;;;;5044936;28;20177;-79
2022/03/08 00:49:36;;;;;;;3.03;2.72;;;4.40;48.00;;;;;;5044642;28;20238;-78
2022/03/08 00:52:02;;;;;;;4.90;3.22;;;4.40;48.50;;;;;;5041407;28;20208;-78
2022/03/08 00:54:29;;;;;;;4.93;3.83;;;4.40;48.70;;;;;;5035946;28;20574;-78
2022/03/08 00:56:55;;;;;;;6.63;4.78;;;4.40;48.10;;;;;;5045922;28;20581;-78
2022/03/08 00:59:21;;;;;;;7.20;4.20;;;4.40;48.00;;;;;;5044301;28;20185;-78
2022/03/08 01:01:47;;;;;;;4.88;3.05;;;4.30;48.80;;;;;;5026490;28;21182;-78
2022/03/08 01:04:13;;;;;;;5.73;4.20;;;4.30;48.60;;;;;;5046147;28;20235;-78
2022/03/08 01:06:43;;;;;;;4.43;3.80;;;4.30;48.80;;;;;;5042607;28;20580;-78
2022/03/08 01:09:10;;;;;;;3.65;3.35;;;4.30;48.40;;;;;;5006740;28;20181;-78
2022/03/08 01:11:37;;;;;;;3.92;3.55;;;4.20;48.80;;;;;;5046148;28;20200;-79
2022/03/08 01:14:04;;;;;;;3.90;3.22;;;4.20;49.00;;;;;;5048775;28;20228;-78
2022/03/08 01:16:30;;;;;;;3.85;3.45;;;4.20;48.50;;;;;;5027050;28;20652;-78
2022/03/08 01:18:56;;;;;;;6.95;4.00;;;4.20;49.10;;;;;;5030683;28;20174;-78
2022/03/08 01:21:24;;;;;;;6.85;3.80;;;4.20;48.90;;;;;;5030652;28;20284;-79
2022/03/08 01:23:49;;;;;;;3.75;3.45;;;4.20;49.00;;;;;;5042350;28;20185;-78
2022/03/08 01:26:16;;;;;;;9.13;2.90;;;4.20;48.70;;;;;;5029397;28;20189;-79
2022/03/08 01:28:42;;;;;;;4.63;3.45;;;4.20;49.20;;;;;;5046607;28;21017;-78
2022/03/08 01:31:07;;;;;;;3.80;3.30;;;4.10;50.00;;;;;;5044593;28;20259;-78
2022/03/08 01:33:34;;;;;;;4.00;3.23;;;4.10;49.30;;;;;;5042471;28;20616;-79
2022/03/08 01:36:02;;;;;;;6.60;4.22;;;4.10;48.90;;;;;;5046874;28;20206;-79
2022/03/08 01:38:28;;;;;;;7.18;5.25;;;4.10;48.90;;;;;;5048575;28;20312;-78
2022/03/08 01:40:56;;;;;;;6.95;4.75;;;4.10;49.00;;;;;;5027151;28;20183;-78
2022/03/08 01:43:21;;;;;;;4.60;4.20;;;4.10;49.70;;;;;;5044520;28;20205;-78
2022/03/08 01:45:48;;;;;;;4.18;3.78;;;4.00;49.10;;;;;;5045119;28;20197;-78
2022/03/08 01:48:14;;;;;;;5.15;3.75;;;4.00;49.10;;;;;;5030099;28;20254;-79
2022/03/08 01:50:40;;;;;;;4.73;4.23;;;4.00;49.40;;;;;;5026910;28;20213;-78
2022/03/08 01:53:06;;;;;;;5.03;4.53;;;4.00;49.40;;;;;;5043674;28;20962;-79
2022/03/08 01:55:33;;;;;;;4.30;3.90;;;4.00;50.60;;;;;;5044288;28;20215;-78
2022/03/08 01:58:00;;;;;;;3.65;3.00;;;4.00;49.80;;;;;;5040336;28;20211;-78
2022/03/08 02:00:30;;;;;;;3.72;3.38;;;3.90;49.60;;;;;;5042379;28;20184;-78
2022/03/08 02:03:00;;;;;;;3.05;2.75;;;4.00;49.30;;;;;;5036959;28;20197;-78
2022/03/08 02:05:28;;;;;;;3.10;2.75;;;4.00;49.60;;;;;;5043204;28;20231;-78
2022/03/08 02:07:54;;;;;;;4.53;4.13;;;4.00;49.40;;;;;;5028691;28;20177;-78
2022/03/08 02:10:21;;;;;;;3.40;3.00;;;3.90;50.40;;;;;;5008568;28;20173;-78
2022/03/08 02:12:47;;;;;;;3.10;2.80;;;3.90;49.90;;;;;;5049033;28;20192;-78
2022/03/08 02:15:19;;;;;;;5.00;3.70;;;3.90;50.30;;;;;;5041018;28;20205;-78
2022/03/08 02:17:45;;;;;;;3.22;2.85;;;3.90;50.90;;;;;;5043882;28;20177;-78
2022/03/08 02:20:13;;;;;;;2.80;2.50;;;3.90;50.00;;;;;;5039291;28;20177;-77
2022/03/08 02:22:40;;;;;;;6.97;3.70;;;3.80;49.80;;;;;;5043809;28;20206;-78
2022/03/08 02:25:06;;;;;;;3.80;3.10;;;3.80;49.90;;;;;;5041085;28;20177;-78
2022/03/08 02:27:32;;;;;;;4.32;2.88;;;3.80;49.80;;;;;;5047670;28;20184;-78
2022/03/08 02:29:59;;;;;;;3.67;2.83;;;3.80;49.80;;;;;;5042913;28;20180;-77
2022/03/08 02:32:24;;;;;;;4.10;3.38;;;3.80;49.70;;;;;;5042546;28;20639;-78
2022/03/08 02:34:50;;;;;;;4.60;3.72;;;3.80;50.20;;;;;;5040594;28;20598;-77
2022/03/08 02:37:16;;;;;;;6.20;3.27;;;3.80;50.60;;;;;;5044014;28;20180;-77
2022/03/08 02:39:43;;;;;;;4.57;2.60;;;3.80;50.40;;;;;;5042422;28;20179;-78
2022/03/08 02:42:10;;;;;;;3.55;3.17;;;3.80;50.30;;;;;;5019937;28;20201;-77
2022/03/08 02:44:36;;;;;;;3.80;3.40;;;3.70;51.00;;;;;;5041906;28;20651;-77
2022/03/08 02:47:05;;;;;;;3.85;3.35;;;3.70;51.20;;;;;;5041133;28;20263;-78
2022/03/08 02:49:32;;;;;;;3.83;3.40;;;3.70;50.70;;;;;;5040953;28;20583;-78
2022/03/08 02:51:58;;;;;;;5.35;3.08;;;3.70;51.90;;;;;;5022019;28;20210;-78
2022/03/08 02:54:24;;;;;;;3.85;3.50;;;3.70;51.50;;;;;;5034520;28;20250;-78
2022/03/08 02:56:50;;;;;;;3.55;3.10;;;3.70;51.70;;;;;;5027495;28;20600;-78
2022/03/08 02:59:23;;;;;;;4.55;3.50;;;3.70;52.50;;;;;;5049932;28;20184;-78
2022/03/08 03:01:50;;;;;;;3.40;3.00;;;3.70;52.60;;;;;;5051641;28;20292;-79
2022/03/08 03:04:15;;;;;;;3.83;3.35;;;3.70;52.00;;;;;;5057161;28;20185;-78
2022/03/08 03:06:43;;;;;;;3.88;3.00;;;3.80;51.90;;;;;;5046905;28;20643;-78
2022/03/08 03:09:09;;;;;;;2.97;2.67;;;3.80;51.50;;;;;;5048907;28;20691;-78
2022/03/08 03:11:36;;;;;;;3.95;3.53;;;3.80;51.20;;;;;;5042505;28;20225;-78
2022/03/08 03:14:02;;;;;;;5.00;2.97;;;3.90;52.00;;;;;;5055212;28;20169;-79
2022/03/08 03:16:28;;;;;;;3.60;3.25;;;3.80;52.10;;;;;;5045053;28;20196;-78
2022/03/08 03:18:54;;;;;;;3.63;3.33;;;3.90;52.10;;;;;;5045184;28;20245;-78
2022/03/08 03:21:20;;;;;;;2.75;2.55;;;3.90;51.70;;;;;;5046910;28;20571;-78
2022/03/08 03:23:46;;;;;;;3.90;2.73;;;3.90;51.50;;;;;;5048274;28;20222;-78
2022/03/08 03:26:11;;;;;;;3.77;2.30;;;3.80;52.10;;;;;;5043896;28;20587;-79
2022/03/08 03:28:37;;;;;;;3.30;3.00;;;3.80;51.50;;;;;;5044829;28;20220;-78
2022/03/08 03:31:03;;;;;;;3.70;3.40;;;3.90;51.60;;;;;;5044774;28;20764;-78
2022/03/08 03:33:28;;;;;;;4.13;3.80;;;3.80;52.30;;;;;;5042567;28;20186;-79
2022/03/08 03:35:54;;;;;;;3.83;3.30;;;3.80;52.40;;;;;;5044826;28;20591;-78
2022/03/08 03:38:20;;;;;;;3.80;3.40;;;3.80;52.20;;;;;;5024802;28;20188;-78
2022/03/08 03:40:46;;;;;;;4.13;3.20;;;3.80;52.20;;;;;;5045172;28;20173;-78
2022/03/08 03:43:11;;;;;;;3.90;3.23;;;3.80;51.70;;;;;;5030571;28;20209;-78
2022/03/08 03:45:37;;;;;;;7.77;3.63;;;3.80;51.90;;;;;;5046089;28;20283;-78
2022/03/08 03:48:04;;;;;;;4.60;4.00;;;3.80;52.30;;;;;;5041429;28;20193;-78
2022/03/08 03:50:29;;;;;;;3.30;3.00;;;3.80;52.80;;;;;;5046271;28;20611;-79
2022/03/08 03:52:55;;;;;;;3.88;2.92;;;3.80;53.00;;;;;;5020816;28;20205;-78
2022/03/08 03:55:21;;;;;;;5.70;3.50;;;3.80;52.40;;;;;;5020417;28;20213;-78
2022/03/08 03:57:47;;;;;;;5.72;5.22;;;3.80;52.30;;;;;;5044292;28;20572;-78
2022/03/08 04:00:15;;;;;;;4.17;3.77;;;3.70;53.70;;;;;;5042065;28;20260;-78
2022/03/08 04:02:41;;;;;;;4.00;3.60;;;3.70;53.10;;;;;;5044596;28;20196;-78
2022/03/08 04:05:08;;;;;;;3.38;3.08;;;3.70;52.70;;;;;;5044647;28;20209;-78
2022/03/08 04:07:34;;;;;;;4.35;3.95;;;3.70;53.90;;;;;;5044550;28;20609;-79
2022/03/08 04:10:00;;;;;;;3.93;3.63;;;3.70;53.80;;;;;;5020760;28;20174;-78
2022/03/08 04:12:28;;;;;;;3.45;3.00;;;3.70;52.80;;;;;;5040873;28;20975;-78
2022/03/08 04:14:55;;;;;;;3.35;3.05;;;3.70;52.60;;;;;;5046027;28;20205;-78
2022/03/08 04:17:20;;;;;;;3.90;2.87;;;3.70;52.60;;;;;;5043928;28;20223;-79
2022/03/08 04:19:47;;;;;;;4.22;3.65;;;3.70;53.90;;;;;;5050803;28;20578;-79
2022/03/08 04:22:13;;;;;;;4.53;3.50;;;3.60;53.00;;;;;;5024888;28;20208;-79
2022/03/08 04:24:39;;;;;;;3.97;3.37;;;3.70;52.80;;;;;;5042513;28;20936;-78
2022/03/08 04:27:05;;;;;;;4.75;3.55;;;3.70;53.90;;;;;;5040586;28;20726;-78
2022/03/08 04:29:31;;;;;;;4.63;4.10;;;3.70;53.30;;;;;;5042030;28;20188;-78
2022/03/08 04:31:57;;;;;;;6.95;4.60;;;3.70;53.70;;;;;;5039928;28;20607;-78
2022/03/08 04:34:23;;;;;;;5.57;4.03;;;3.70;54.10;;;;;;5041938;28;20216;-78
2022/03/08 04:36:48;;;;;;;5.60;5.10;;;3.70;53.50;;;;;;5040310;28;20583;-78
2022/03/08 04:39:14;;;;;;;4.50;3.30;;;3.70;54.00;;;;;;5042877;28;20185;-78
2022/03/08 04:41:41;;;;;;;3.88;3.40;;;3.70;53.70;;;;;;5042044;28;20203;-78
2022/03/08 04:44:08;;;;;;;4.32;3.20;;;3.70;53.50;;;;;;5042795;28;20549;-78
2022/03/08 04:46:33;;;;;;;3.67;3.37;;;3.60;53.60;;;;;;4984952;28;1121103;-78
2022/03/08 04:48:59;;;;;;;5.63;3.70;;;3.60;53.50;;;;;;5044120;28;20227;-78
2022/03/08 04:51:25;;;;;;;5.00;3.53;;;3.60;53.80;;;;;;5043805;28;20633;-78
2022/03/08 04:53:51;;;;;;;4.53;3.40;;;3.60;53.80;;;;;;5023984;28;20181;-78
2022/03/08 04:56:18;;;;;;;4.10;3.40;;;3.60;54.10;;;;;;5047779;28;20216;-78
2022/03/08 04:58:45;;;;;;;5.60;4.38;;;3.60;53.90;;;;;;5040949;28;20231;-77
2022/03/08 05:01:11;;;;;;;4.68;3.45;;;3.60;54.60;;;;;;5043372;28;20223;-77
2022/03/08 05:03:36;;;;;;;3.53;2.90;;;3.60;54.40;;;;;;5024871;28;20223;-77
2022/03/08 05:06:04;;;;;;;3.17;2.87;;;3.60;53.90;;;;;;5040750;28;20211;-77
2022/03/08 05:08:30;;;;;;;4.40;4.00;;;3.60;54.00;;;;;;5044342;28;20700;-77
2022/03/08 05:10:55;;;;;;;5.37;4.57;;;3.60;54.60;;;;;;5039567;28;20260;-77
2022/03/08 05:13:22;;;;;;;6.20;3.20;;;3.70;54.40;;;;;;5041046;28;20207;-77
2022/03/08 05:15:49;;;;;;;4.50;3.45;;;3.60;54.80;;;;;;5043957;28;20206;-78
2022/03/08 05:18:16;;;;;;;4.32;3.55;;;3.60;54.30;;;;;;5039543;28;20174;-77
2022/03/08 05:20:42;;;;;;;4.32;3.92;;;3.60;54.20;;;;;;5023028;28;20165;-78
2022/03/08 05:23:08;;;;;;;5.07;4.17;;;3.60;55.00;;;;;;5040928;28;20605;-77
2022/03/08 05:25:34;;;;;;;4.70;3.83;;;3.60;54.50;;;;;;5032480;28;20575;-77
2022/03/08 05:27:59;;;;;;;4.00;3.60;;;3.60;54.60;;;;;;5040019;28;20192;-77
2022/03/08 05:30:25;;;;;;;3.80;3.50;;;3.60;54.70;;;;;;5026306;28;20584;-77
2022/03/08 05:32:52;;;;;;;4.60;2.97;;;3.60;55.00;;;;;;5045612;28;20595;-77
2022/03/08 05:35:18;;;;;;;5.40;3.90;;;3.60;54.60;;;;;;5042563;28;20627;-77
2022/03/08 05:37:44;;;;;;;7.47;4.40;;;3.50;54.70;;;;;;5038923;28;20594;-77
2022/03/08 05:40:10;;;;;;;5.03;3.50;;;3.50;55.20;;;;;;5042211;28;20169;-78
2022/03/08 05:42:38;;;;;;;4.00;3.65;;;3.50;55.80;;;;;;5042318;28;20997;-77
2022/03/08 05:45:08;;;;;;;4.15;3.60;;;3.50;55.30;;;;;;5023194;28;20246;-77
2022/03/08 05:47:35;;;;;;;4.65;4.10;;;3.50;55.10;;;;;;5039992;28;20188;-77
2022/03/08 05:50:03;;;;;;;4.53;4.13;;;3.50;55.00;;;;;;5041242;28;20630;-78
2022/03/08 05:52:29;;;;;;;4.22;3.55;;;3.50;55.10;;;;;;5022240;28;20196;-77
2022/03/08 05:54:54;;;;;;;4.87;3.30;;;3.50;55.00;;;;;;5041886;28;20201;-78
2022/03/08 05:57:20;;;;;;;3.17;2.80;;;3.50;54.70;;;;;;5041302;28;20608;-77
2022/03/08 05:59:49;;;;;;;4.60;3.80;;;3.50;54.60;;;;;;5040101;28;20176;-77
2022/03/08 06:02:19;;;;;;;4.40;3.92;;;3.50;54.40;;;;;;5041493;28;20320;-77
2022/03/08 06:04:45;;;;;;;5.78;4.28;;;3.50;54.60;;;;;;5039099;28;20544;-79
2022/03/08 06:07:11;;;;;;;4.95;3.70;;;3.50;55.10;;;;;;5041201;28;20277;-79
2022/03/08 06:09:37;;;;;;;6.93;3.40;;;3.50;55.00;;;;;;5044731;28;20186;-79
2022/03/08 06:12:03;;;;;;;5.10;4.50;;;3.50;54.90;;;;;;5043143;28;20193;-78
2022/03/08 06:14:29;;;;;;;5.13;3.85;;;3.50;55.00;;;;;;5037307;28;21007;-78
2022/03/08 06:16:55;;;;;;;6.15;5.07;;;3.50;55.10;;;;;;5043057;28;20632;-79
2022/03/08 06:19:21;;;;;;;5.45;4.60;;;3.50;55.20;;;;;;5022450;28;20181;-79
2022/03/08 06:21:47;;;;;;;6.73;4.57;;;3.50;55.30;;;;;;5041875;28;20259;-78
2022/03/08 06:24:14;;;;;;;5.30;4.10;;;3.50;55.40;;;;;;5040948;28;20572;-79
2022/03/08 06:26:39;;;;;;;5.72;3.75;;;3.50;55.60;;;;;;5038409;28;20173;-78
2022/03/08 06:29:08;;;;;;;5.43;4.20;;;3.50;55.30;;;;;;5042715;28;20184;-78
2022/03/08 06:31:34;;;;;;;3.83;3.42;;;3.50;56.20;;;;;;5041115;28;20192;-78
2022/03/08 06:34:00;;;;;;;6.75;4.00;;;3.60;55.30;;;;;;5043662;28;20176;-79
2022/03/08 06:36:26;;;;;;;4.67;4.20;;;3.60;55.70;;;;;;5040676;28;20288;-78
2022/03/08 06:38:52;;;;;;;4.13;3.47;;;3.60;55.70;;;;;;5057746;28;20580;-79
2022/03/08 06:41:18;;;;;;;4.83;3.80;;;3.60;55.90;;;;;;5054611;28;20181;-78
2022/03/08 06:43:44;;;;;;;4.60;3.33;;;3.60;55.90;;;;;;5057448;28;20579;-79
2022/03/08 06:46:10;;;;;;;7.03;4.83;;;3.70;55.70;;;;;;5052905;28;20256;-78
2022/03/08 06:48:37;;;;;;;4.20;3.67;;;3.70;56.70;;;;;;5045472;28;20264;-78
2022/03/08 06:51:03;;;;;;;6.63;5.75;;;3.70;55.80;;;;;;5041421;28;20192;-80
2022/03/08 06:53:29;;;;;;;11.10;6.55;;;3.70;57.40;;;;;;5042876;28;20212;-80
2022/03/08 06:55:55;;;;;;;6.55;4.53;;;3.70;57.00;;;;;;5045037;28;20208;-77
2022/03/08 06:58:22;;;;;;;7.30;5.63;;;3.70;57.00;;;;;;5044460;28;20253;-78
2022/03/08 07:00:48;;;;;;;6.53;4.65;;;3.80;57.10;;;;;;5024920;28;20596;-76
2022/03/08 07:03:13;;;;;;;6.37;4.53;;;3.80;57.10;;;;;;5029062;28;20215;-76
2022/03/08 07:05:40;;;;;;;6.30;4.90;;;3.80;56.70;;;;;;5021828;28;20184;-76
2022/03/08 07:08:06;;;;;;;6.68;5.35;;;3.80;57.00;;;;;;5041996;28;20180;-77
2022/03/08 07:10:33;;;;;;;6.05;5.22;;;3.90;57.20;;;;;;5039888;28;20178;-77
2022/03/08 07:12:59;;;;;;;5.60;4.70;;;3.80;57.70;;;;;;5041930;28;20213;-76
2022/03/08 07:15:24;;;;;;;4.53;4.00;;;3.90;57.30;;;;;;5014928;28;20739;-76
2022/03/08 07:17:51;;;;;;;4.40;4.00;;;3.90;56.80;;;;;;5037819;28;20634;-76
2022/03/08 07:20:17;;;;;;;7.85;5.40;;;4.00;56.80;;;;;;5036842;28;20213;-76
2022/03/08 07:22:44;;;;;;;5.22;4.30;;;4.00;57.10;;;;;;5044753;28;20280;-77
2022/03/08 07:25:11;;;;;;;5.00;4.10;;;4.10;57.00;;;;;;5047334;28;20211;-76
2022/03/08 07:27:38;;;;;;;3.58;3.28;;;4.10;56.50;;;;;;5035142;28;20178;-76
2022/03/08 07:30:06;;;;;;;4.90;3.40;;;4.20;56.90;;;;;;5041775;28;20184;-76
2022/03/08 07:32:32;;;;;;;5.03;4.53;;;4.20;56.80;;;;;;5041212;28;20236;-76
2022/03/08 07:34:58;;;;;;;7.37;4.37;;;4.30;57.50;;;;;;5042005;28;20185;-76
2022/03/08 07:37:24;;;;;;;5.27;4.47;;;4.40;57.40;;;;;;5021444;28;20224;-77
2022/03/08 07:39:50;;;;;;;6.63;5.25;;;4.40;57.10;;;;;;5044512;28;20592;-77
2022/03/08 07:42:16;;;;;;;5.00;4.50;;;4.50;57.20;;;;;;5043484;28;21255;-77
2022/03/08 07:44:42;;;;;;;5.43;4.70;;;4.60;57.30;;;;;;5047078;28;20646;-78
2022/03/08 07:47:08;;;;;;;4.60;4.03;;;4.70;57.00;;;;;;5021494;28;20193;-77
2022/03/08 07:49:34;;;;;;;5.75;5.15;;;4.90;57.60;;;;;;5045071;28;20674;-76
2022/03/08 07:52:00;;;;;;;5.13;4.60;;;4.90;57.20;;;;;;5040611;28;20301;-76
2022/03/08 07:54:26;;;;;;;5.70;5.07;;;5.10;57.00;;;;;;5043540;28;20795;-77
2022/03/08 07:56:52;;;;;;;8.13;5.33;;;5.20;57.30;;;;;;5041968;28;21228;-76
2022/03/08 07:59:18;;;;;;;6.70;4.93;;;5.20;57.00;;;;;;5038893;28;20248;-77
2022/03/08 08:01:44;;;;;;;5.40;4.68;;;5.40;56.80;;;;;;5043651;28;20194;-77
2022/03/08 08:04:10;;;;;;;5.17;4.50;;;5.50;56.70;;;;;;5038853;28;20680;-76
2022/03/08 08:06:36;;;;;;;5.20;4.30;;;5.70;56.70;;;;;;5043623;28;20587;-76
2022/03/08 08:09:02;;;;;;;5.00;4.50;;;6.10;56.60;;;;;;5016950;28;20641;-77
2022/03/08 08:11:28;;;;;;;5.30;4.65;;;6.70;57.60;;;;;;5027701;28;20226;-78
2022/03/08 08:13:54;;;;;;;6.40;4.50;;;7.40;58.00;;;;;;5039775;28;20165;-75
2022/03/08 08:16:20;;;;;;;6.67;5.10;;;8.20;56.70;;;;;;5048800;28;20630;-75
2022/03/08 08:18:45;;;;;;;4.87;3.80;;;9.00;58.00;;;;;;5044138;28;20183;-75
2022/03/08 08:21:11;;;;;;;4.80;4.00;;;9.60;53.90;;;;;;5039832;28;20692;-76
2022/03/08 08:23:37;;;;;;;5.47;4.28;;;10.40;53.90;;;;;;5035948;28;20188;-77
2022/03/08 08:26:03;;;;;;;5.47;4.27;;;11.10;54.10;;;;;;5036392;28;20711;-75
2022/03/08 08:28:29;;;;;;;4.10;3.60;;;12.00;53.00;;;;;;5022853;28;20186;-74
2022/03/08 08:30:54;;;;;;;4.27;3.57;;;12.60;52.60;;;;;;5042549;28;20603;-75
2022/03/08 08:33:20;;;;;;;4.20;3.80;;;13.40;53.10;;;;;;5042079;28;20300;-74
2022/03/08 08:35:47;;;;;;;3.70;3.40;;;14.10;52.00;;;;;;5042342;28;20213;-75
2022/03/08 08:38:13;;;;;;;6.00;4.03;;;14.70;51.30;;;;;;5047006;28;20572;-76
2022/03/08 08:40:38;;;;;;;4.80;4.30;;;15.30;49.80;;;;;;5044377;28;20925;-76
2022/03/08 08:43:05;;;;;;;4.17;3.77;;;15.40;45.00;;;;;;5045163;28;20602;-78
2022/03/08 08:45:35;;;;;;;3.43;3.13;;;15.30;45.20;;;;;;5046623;28;20197;-77
2022/03/08 08:48:10;;;;;;;4.93;4.33;;;15.30;44.20;;;;;;5021204;28;20588;-78
2022/03/08 08:50:39;;;;;;;3.07;2.77;;;15.20;43.50;;;;;;5016782;28;20575;-80
2022/03/08 08:53:04;;;;;;;4.60;3.70;;;15.30;46.30;;;;;;5046229;28;20925;-82
2022/03/08 08:55:30;;;;;;;6.83;4.20;;;15.70;45.40;;;;;;5036725;28;20645;-78
2022/03/08 08:57:56;;;;;;;3.97;3.67;;;15.60;43.10;;;;;;5039077;28;20174;-78
2022/03/08 09:00:22;;;;;;;4.27;3.87;;;15.70;44.30;;;;;;5046571;28;20172;-78
2022/03/08 09:02:48;;;;;;;4.27;3.87;;;15.90;43.00;;;;;;5045080;28;20189;-79
2022/03/08 09:05:14;;;;;;;4.03;3.73;;;15.90;42.60;;;;;;5040739;28;20584;-79
2022/03/08 09:07:40;;;;;;;6.43;3.97;;;16.00;42.70;;;;;;5040070;28;20576;-78
2022/03/08 09:10:07;;;;;;;4.30;3.03;;;16.40;43.10;;;;;;5045526;28;20173;-80
2022/03/08 09:12:33;;;;;;;4.63;3.43;;;16.90;43.70;;;;;;5041459;28;20608;-76
2022/03/08 09:15:01;;;;;;;5.60;4.07;;;17.00;42.70;;;;;;5047377;28;20627;-77
2022/03/08 09:17:28;;;;;;;3.30;3.00;;;16.80;40.80;;;;;;5049660;28;20669;-76
2022/03/08 09:19:54;;;;;;;3.90;3.50;;;16.80;40.30;;;;;;5024858;28;20568;-76
2022/03/08 09:22:20;;;;;;;3.83;3.43;;;17.10;41.20;;;;;;5024239;28;21015;-76
2022/03/08 09:24:46;;;;;;;3.90;2.70;;;17.30;42.60;;;;;;5041275;28;20798;-77
2022/03/08 09:27:12;;;;;;;5.00;3.20;;;17.50;40.30;;;;;;5043770;28;20341;-76
2022/03/08 09:29:37;;;;;;;2.83;2.53;;;17.30;39.50;;;;;;5041774;28;20192;-77
2022/03/08 09:32:03;;;;;;;4.83;3.80;;;17.40;39.60;;;;;;5039405;28;21184;-77
2022/03/08 09:34:29;;;;;;;3.00;2.73;;;17.50;40.00;;;;;;5046590;28;20268;-76
2022/03/08 09:36:55;;;;;;;4.70;3.70;;;17.70;40.80;;;;;;5025435;28;20655;-76
2022/03/08 09:39:21;;;;;;;3.80;3.30;;;17.90;40.40;;;;;;5042607;28;20302;-76
2022/03/08 09:41:51;;;;;;;4.67;3.43;;;18.40;40.10;;;;;;5042037;28;21069;-76
2022/03/08 09:44:19;;;;;;;4.43;2.60;;;18.10;37.40;;;;;;5025745;28;20673;-76
2022/03/08 09:46:45;;;;;;;2.87;2.57;;;18.20;37.70;;;;;;5035375;28;20608;-76
2022/03/08 09:49:10;;;;;;;5.23;4.70;;;18.30;39.10;;;;;;5040067;28;20623;-79
2022/03/08 09:51:38;;;;;;;4.97;2.80;;;18.60;37.30;;;;;;5024720;28;20646;-79
2022/03/08 09:54:05;;;;;;;7.10;3.27;;;18.50;35.40;;;;;;5022282;28;20579;-80
2022/03/08 09:56:31;;;;;;;4.27;3.23;;;18.30;35.60;;;;;;5039053;28;20626;-79
2022/03/08 09:58:59;;;;;;;3.03;2.27;;;18.00;35.30;;;;;;5042838;28;20586;-78
2022/03/08 10:01:25;;;;;;;3.70;3.17;;;17.70;35.90;;;;;;5035061;28;20614;-78
2022/03/08 10:03:51;;;;;;;5.80;3.13;;;17.50;35.10;;;;;;5029720;28;20569;-78
2022/03/08 10:06:17;;;;;;;4.83;3.80;;;17.40;36.00;;;;;;5013011;28;20715;-78
2022/03/08 10:08:43;;;;;;;7.10;3.30;;;17.40;35.00;;;;;;5020125;28;20176;-78
2022/03/08 10:11:14;;;;;;;4.57;2.60;;;17.00;34.10;;;;;;5037243;28;20587;-78
2022/03/08 10:13:48;;;;;;;3.43;3.10;;;17.10;35.60;;;;;;5025624;28;20174;-76
2022/03/08 10:16:25;;;;;;;3.73;2.73;;;17.00;34.50;;;;;;5032017;28;20620;-77
2022/03/08 10:19:02;;;;;;;6.67;3.53;;;17.00;35.30;;;;;;5041890;28;20583;-78
2022/03/08 10:21:37;;;;;;;4.87;2.30;;;16.70;33.80;;;;;;5042719;28;20615;-76
2022/03/08 10:24:23;;;;;;;4.73;2.83;;;16.50;33.70;;;;;;5040111;28;20592;-77
2022/03/08 10:26:57;;;;;;;3.53;2.87;;;16.40;34.90;;;;;;5038284;28;20593;-77
2022/03/08 10:29:37;;;;;;;4.73;3.23;;;16.50;34.70;;;;;;5015076;28;20592;-78
2022/03/08 10:32:08;;;;;;;3.27;2.90;;;16.60;34.60;;;;;;5042417;28;20600;-76
2022/03/08 10:34:36;;;;;;;4.70;2.47;;;16.50;33.20;;;;;;5016486;28;21251;-77
2022/03/08 10:37:12;;;;;;;4.93;2.60;;;16.70;34.80;;;;;;5040256;28;20936;-77
2022/03/08 10:39:49;;;;;;;3.17;2.80;;;16.40;34.30;;;;;;5034491;28;21011;-77
2022/03/08 10:42:20;;;;;;;4.20;3.10;;;16.00;33.30;;;;;;5043677;28;21006;-74
2022/03/08 10:44:45;;;;;;;4.33;3.20;;;15.30;32.60;;;;;;5042766;28;20588;-76
2022/03/08 10:47:13;;;;;;;7.40;5.00;;;15.30;33.50;;;;;;5037574;28;20760;-77
2022/03/08 10:49:56;;;;;;;3.83;2.73;;;15.40;34.70;;;;;;5037007;28;20174;-77
2022/03/08 10:52:27;;;;;;;4.20;2.87;;;15.10;33.40;;;;;;5040389;28;21194;-77
2022/03/08 10:54:54;;;;;;;3.17;2.40;;;15.00;33.40;;;;;;5040753;28;20635;-77
2022/03/08 10:57:19;;;;;;;2.50;1.90;;;15.00;34.10;;;;;;5040206;28;20585;-77
2022/03/08 10:59:54;;;;;;;3.30;2.47;;;14.90;34.60;;;;;;5044896;28;20797;-77
2022/03/08 11:02:24;;;;;;;2.80;2.50;;;14.70;33.90;;;;;;5033962;28;20256;-76
2022/03/08 11:05:08;;;;;;;3.70;2.63;;;14.10;33.10;;;;;;5040865;28;20582;-77
2022/03/08 11:07:37;;;;;;;3.73;2.33;;;14.40;34.40;;;;;;5032867;28;20575;-76
2022/03/08 11:10:06;;;;;;;4.70;2.50;;;14.60;34.90;;;;;;5043837;28;20589;-76
2022/03/08 11:12:32;;;;;;;3.13;2.80;;;14.40;34.60;;;;;;5039800;28;21237;-77
2022/03/08 11:14:57;;;;;;;3.97;3.57;;;14.60;35.20;;;;;;5044057;28;20630;-77
2022/03/08 11:17:24;;;;;;;6.10;3.10;;;14.50;34.90;;;;;;5028565;28;20191;-77
2022/03/08 11:19:50;;;;;;;5.83;3.17;;;14.40;34.90;;;;;;5042270;28;20675;-77
2022/03/08 11:22:18;;;;;;;5.70;4.73;;;14.50;34.90;;;;;;5028439;28;20603;-76
2022/03/08 11:24:46;;;;;;;3.70;3.40;;;14.20;34.30;;;;;;5051331;28;20582;-76
2022/03/08 11:27:15;;;;;;;4.30;3.27;;;14.60;35.30;;;;;;5042110;28;20576;-76
2022/03/08 11:29:42;;;;;;;4.73;2.77;;;14.60;35.50;;;;;;5043028;28;20577;-76
2022/03/08 11:32:14;;;;;;;4.70;3.07;;;14.90;36.10;;;;;;5028214;28;20603;-76
2022/03/08 11:34:45;;;;;;;3.63;2.70;;;15.20;35.70;;;;;;5046846;28;20649;-76
2022/03/08 11:37:19;;;;;;;3.70;2.13;;;15.40;35.90;;;;;;5028507;28;20575;-76
2022/03/08 11:40:05;;;;;;;4.00;3.43;;;15.60;35.60;;;;;;5040714;28;20602;-76
2022/03/08 11:42:32;;;;;;;5.43;4.00;;;15.90;35.60;;;;;;5041601;28;20678;-76
2022/03/08 11:45:06;;;;;;;4.63;4.00;;;15.60;35.00;;;;;;5045915;28;21154;-76
2022/03/08 11:47:52;;;;;;;4.30;3.90;;;15.50;34.70;;;;;;5043297;28;20587;-76
2022/03/08 11:50:22;;;;;;;3.03;2.80;;;15.40;35.00;;;;;;5039976;28;20640;-76
2022/03/08 11:53:08;;;;;;;5.60;3.47;;;15.50;35.20;;;;;;5031224;28;20646;-77
2022/03/08 11:55:39;;;;;;;4.10;3.70;;;15.40;34.50;;;;;;5022857;28;21000;-77
2022/03/08 11:58:13;;;;;;;7.50;3.27;;;15.30;34.60;;;;;;5022854;28;20995;-76
2022/03/08 12:00:43;;;;;;;4.20;3.40;;;15.10;34.60;;;;;;5041587;28;20580;-76
2022/03/08 12:03:29;;;;;;;6.20;4.50;;;15.10;35.20;;;;;;5040683;28;20592;-76
2022/03/08 12:06:02;;;;;;;4.60;3.10;;;14.90;35.10;;;;;;5025943;28;20648;-77
2022/03/08 12:08:31;;;;;;;4.93;4.40;;;15.10;35.70;;;;;;5022710;28;20942;-77
2022/03/08 12:11:00;;;;;;;3.50;3.20;;;15.20;35.80;;;;;;5031696;28;20621;-76
2022/03/08 12:13:34;;;;;;;6.07;5.40;;;15.30;35.70;;;;;;5046108;28;20657;-77
2022/03/08 12:16:09;;;;;;;3.60;3.30;;;15.20;35.30;;;;;;5051336;28;20996;-76
2022/03/08 12:18:56;;;;;;;5.00;3.63;;;15.30;35.90;;;;;;5045176;28;20578;-77
2022/03/08 12:21:25;;;;;;;3.47;2.90;;;15.40;35.50;;;;;;5023119;28;20595;-76
2022/03/08 12:24:05;;;;;;;5.87;3.20;;;15.60;36.40;;;;;;5040929;28;20679;-76
2022/03/08 12:26:34;;;;;;;3.70;3.30;;;15.50;35.10;;;;;;5037303;28;20943;-76
2022/03/08 12:29:15;;;;;;;4.70;3.30;;;15.40;35.20;;;;;;5042126;28;20596;-76
2022/03/08 12:31:56;;;;;;;7.20;3.57;;;15.20;34.90;;;;;;5041264;28;20614;-76
2022/03/08 12:34:39;;;;;;;4.97;3.77;;;14.90;34.50;;;;;;5048688;28;20584;-75
2022/03/08 12:37:14;;;;;;;4.70;3.33;;;14.80;34.50;;;;;;5040551;28;20631;-76
2022/03/08 12:39:46;;;;;;;3.57;2.80;;;14.80;35.60;;;;;;5043550;28;20921;-78
2022/03/08 12:42:31;;;;;;;3.73;3.30;;;14.80;34.90;;;;;;5049626;28;20690;-77
2022/03/08 12:45:08;;;;;;;5.90;3.27;;;14.80;35.30;;;;;;5040824;28;21177;-75
2022/03/08 12:47:41;;;;;;;4.00;3.30;;;15.00;35.40;;;;;;5023529;28;20593;-75
2022/03/08 12:50:12;;;;;;;3.40;3.00;;;14.90;34.10;;;;;;5038839;28;21196;-75
2022/03/08 12:52:48;;;;;;;5.00;4.43;;;14.90;34.50;;;;;;5044965;28;20610;-75
2022/03/08 12:55:36;;;;;;;4.17;3.53;;;14.70;34.20;;;;;;5041091;28;20615;-75